Time;durP1;ratioP1;P1;durP2;ratioP2;P2;SDS_P1;SDS_P2;PMS_P1;PMS_P2;Temp;Humidity;BMP_temperature;BMP_pressure;BME280_temperature;BME280_humidity;BME280_pressure;Samples;Min_cycle;Max_cycle;Signal;HPM_P1;HPM_P2
2023/01/23 00:00:36;;;;;;;18.65;12.02;;;3.10;99.90;;;;;;5083437;28;20024;-43
2023/01/23 00:03:02;;;;;;;21.08;13.15;;;3.10;99.90;;;;;;5082843;28;20567;-43
2023/01/23 00:05:27;;;;;;;18.85;12.02;;;3.10;99.90;;;;;;5083556;28;20020;-43
2023/01/23 00:07:53;;;;;;;18.67;12.48;;;3.10;99.90;;;;;;5083334;28;20650;-43
2023/01/23 00:10:18;;;;;;;17.65;12.20;;;3.10;99.90;;;;;;5083185;28;20391;-43
2023/01/23 00:12:44;;;;;;;18.70;13.68;;;3.10;99.90;;;;;;5082818;28;20616;-43
2023/01/23 00:15:11;;;;;;;19.00;13.70;;;3.10;99.90;;;;;;5083527;28;20054;-43
2023/01/23 00:17:39;;;;;;;19.55;13.77;;;3.10;99.90;;;;;;5083814;28;20711;-42
2023/01/23 00:20:05;;;;;;;22.30;13.23;;;3.10;99.90;;;;;;5082245;28;20796;-44
2023/01/23 00:22:31;;;;;;;19.27;12.57;;;3.10;99.90;;;;;;5082913;28;20050;-43
2023/01/23 00:24:56;;;;;;;19.38;13.30;;;3.10;99.90;;;;;;5082784;28;20654;-42
2023/01/23 00:27:22;;;;;;;19.73;13.35;;;3.10;99.90;;;;;;5082158;28;20780;-43
2023/01/23 00:29:47;;;;;;;19.73;13.90;;;3.10;99.90;;;;;;5083413;28;20121;-43
2023/01/23 00:32:13;;;;;;;21.52;13.00;;;3.10;99.90;;;;;;5082891;28;20446;-43
2023/01/23 00:34:39;;;;;;;21.73;13.57;;;3.10;99.90;;;;;;5082264;28;20434;-43
2023/01/23 00:37:04;;;;;;;21.05;13.60;;;3.00;99.90;;;;;;5082612;28;20047;-43
2023/01/23 00:39:30;;;;;;;25.52;13.82;;;3.10;99.90;;;;;;5082712;28;20050;-43
2023/01/23 00:41:56;;;;;;;23.75;15.60;;;3.00;99.90;;;;;;5082998;28;20028;-44
2023/01/23 00:44:21;;;;;;;24.83;15.18;;;3.00;99.90;;;;;;5082154;28;20032;-43
2023/01/23 00:46:47;;;;;;;20.05;13.93;;;3.00;99.90;;;;;;5083011;28;20103;-43
2023/01/23 00:49:13;;;;;;;20.20;13.05;;;3.00;99.90;;;;;;5081596;28;20043;-43
2023/01/23 00:51:39;;;;;;;21.08;13.98;;;3.00;99.90;;;;;;5082686;28;20031;-43
2023/01/23 00:54:05;;;;;;;19.63;13.00;;;3.00;99.90;;;;;;5082569;28;20016;-42
2023/01/23 00:56:31;;;;;;;19.58;13.18;;;3.00;99.90;;;;;;5082214;28;20024;-44
2023/01/23 00:58:56;;;;;;;20.77;14.25;;;3.00;99.90;;;;;;5082552;28;20103;-43
2023/01/23 01:01:22;;;;;;;24.02;14.40;;;3.00;99.90;;;;;;5082770;28;20024;-44
2023/01/23 01:03:48;;;;;;;20.42;14.18;;;3.00;99.90;;;;;;5082449;28;20027;-43
2023/01/23 01:06:14;;;;;;;19.10;13.63;;;3.00;99.90;;;;;;5082311;28;20031;-42
2023/01/23 01:08:40;;;;;;;21.95;13.68;;;3.00;99.90;;;;;;5083153;28;20024;-43
2023/01/23 01:11:06;;;;;;;23.02;14.05;;;3.00;99.90;;;;;;5082094;28;20035;-44
2023/01/23 01:13:32;;;;;;;19.48;14.00;;;3.00;99.90;;;;;;5082630;28;20066;-43
2023/01/23 01:16:00;;;;;;;20.02;14.88;;;3.00;99.90;;;;;;5081710;28;20016;-43
2023/01/23 01:18:26;;;;;;;21.67;14.85;;;3.10;99.90;;;;;;5082822;28;20028;-44
2023/01/23 01:20:58;;;;;;;23.23;14.68;;;3.00;99.90;;;;;;5082307;28;20024;-43
2023/01/23 01:23:24;;;;;;;22.57;14.17;;;3.10;99.90;;;;;;5081840;28;20118;-43
2023/01/23 01:25:57;;;;;;;21.55;14.02;;;3.00;99.90;;;;;;5082182;28;20361;-43
2023/01/23 01:28:22;;;;;;;21.20;14.25;;;3.10;99.90;;;;;;5062015;28;20031;-43
2023/01/23 01:30:48;;;;;;;24.83;14.95;;;3.00;99.90;;;;;;5076747;28;20383;-43
2023/01/23 01:33:13;;;;;;;25.70;16.55;;;3.10;99.90;;;;;;5081600;28;20431;-43
2023/01/23 01:35:40;;;;;;;24.35;15.52;;;3.00;99.90;;;;;;5080800;28;20783;-43
2023/01/23 01:38:07;;;;;;;21.25;14.13;;;3.00;99.90;;;;;;5080844;28;20032;-43
2023/01/23 01:40:34;;;;;;;20.55;13.93;;;3.00;99.90;;;;;;5081728;28;20062;-44
2023/01/23 01:43:02;;;;;;;24.05;15.25;;;3.00;99.90;;;;;;5081388;28;20681;-44
2023/01/23 01:46:05;;;;;;;20.85;14.38;;;3.10;99.90;;;;;;5081515;28;20075;-43
2023/01/23 01:48:32;;;;;;;25.83;14.90;;;3.10;99.90;;;;;;5082035;28;20031;-43
2023/01/23 01:50:59;;;;;;;24.42;15.32;;;3.10;99.90;;;;;;5081011;28;20027;-43
2023/01/23 01:53:27;;;;;;;26.30;16.20;;;3.10;99.90;;;;;;5081378;28;20107;-43
2023/01/23 01:55:54;;;;;;;24.63;15.05;;;3.10;99.90;;;;;;5081999;28;20028;-43
2023/01/23 01:58:20;;;;;;;24.35;15.15;;;3.10;99.90;;;;;;5080588;28;20455;-43
2023/01/23 02:00:46;;;;;;;21.85;14.50;;;3.10;99.90;;;;;;5081681;28;20020;-44
2023/01/23 02:03:12;;;;;;;24.25;13.68;;;3.20;99.90;;;;;;5081689;28;20024;-44
2023/01/23 02:05:44;;;;;;;21.95;13.95;;;3.10;99.90;;;;;;5081146;28;20035;-43
2023/01/23 02:08:22;;;;;;;24.77;14.63;;;3.20;99.90;;;;;;5080865;28;20460;-43
2023/01/23 02:10:48;;;;;;;23.60;14.10;;;3.20;99.90;;;;;;5081725;28;20031;-43
2023/01/23 02:13:34;;;;;;;22.45;14.35;;;3.20;99.90;;;;;;5080232;28;20062;-43
2023/01/23 02:16:03;;;;;;;19.50;13.95;;;3.20;99.90;;;;;;5080843;28;20130;-42
2023/01/23 02:18:30;;;;;;;22.98;14.63;;;3.20;99.90;;;;;;5081535;28;20028;-43
2023/01/23 02:20:58;;;;;;;23.65;15.88;;;3.30;99.90;;;;;;5081427;28;20028;-43
2023/01/23 02:23:24;;;;;;;24.35;15.02;;;3.30;99.90;;;;;;5077650;28;20020;-43
2023/01/23 02:26:31;;;;;;;25.42;14.50;;;3.30;99.90;;;;;;5081939;28;20035;-43
2023/01/23 02:28:58;;;;;;;19.98;13.48;;;3.30;99.90;;;;;;5017662;28;20476;-43
2023/01/23 02:31:24;;;;;;;18.83;14.38;;;3.30;99.90;;;;;;5057013;28;20045;-43
2023/01/23 02:33:52;;;;;;;21.10;13.55;;;3.30;99.90;;;;;;5081098;28;20793;-43
2023/01/23 02:36:21;;;;;;;24.08;14.15;;;3.20;99.90;;;;;;5081393;28;20039;-43
2023/01/23 02:38:54;;;;;;;22.30;12.93;;;3.30;99.90;;;;;;5079915;28;20115;-43
2023/01/23 02:41:27;;;;;;;20.65;12.93;;;3.30;99.90;;;;;;5080345;28;20020;-42
2023/01/23 02:43:54;;;;;;;15.60;11.48;;;3.30;99.90;;;;;;5080760;28;20395;-43
2023/01/23 02:46:20;;;;;;;23.75;13.18;;;3.30;99.90;;;;;;5080936;28;20148;-43
2023/01/23 02:48:47;;;;;;;19.70;13.38;;;3.30;99.90;;;;;;5084413;28;20562;-43
2023/01/23 02:51:13;;;;;;;23.55;14.27;;;3.30;99.90;;;;;;5084296;28;20592;-43
2023/01/23 02:53:38;;;;;;;20.05;14.02;;;3.30;99.90;;;;;;5084908;28;20024;-43
2023/01/23 02:56:04;;;;;;;23.27;14.15;;;3.30;99.90;;;;;;5083953;28;20031;-44
2023/01/23 03:01:14;;;;;;;22.05;13.68;;;3.30;99.90;;;;;;5084765;28;20081;-43
2023/01/23 03:03:43;;;;;;;17.35;13.13;;;3.30;99.90;;;;;;5084149;28;20040;-44
2023/01/23 03:06:09;;;;;;;19.77;13.02;;;3.40;99.90;;;;;;5083897;28;20377;-45
2023/01/23 03:08:45;;;;;;;21.15;14.38;;;3.30;99.90;;;;;;5084098;28;20036;-43
2023/01/23 03:11:12;;;;;;;21.77;14.05;;;3.30;99.90;;;;;;5084816;28;20172;-44
2023/01/23 03:13:37;;;;;;;22.20;14.88;;;3.30;99.90;;;;;;5084888;28;20027;-43
2023/01/23 03:16:03;;;;;;;22.45;14.68;;;3.30;99.90;;;;;;5084197;28;20020;-43
2023/01/23 03:18:29;;;;;;;23.90;13.77;;;3.30;99.90;;;;;;5085047;28;20035;-43
2023/01/23 03:21:00;;;;;;;21.85;14.45;;;3.30;99.90;;;;;;5085114;28;20036;-43
2023/01/23 03:23:25;;;;;;;22.60;13.82;;;3.30;99.90;;;;;;5084574;28;20024;-43
2023/01/23 03:25:57;;;;;;;20.98;13.88;;;3.30;99.90;;;;;;5084541;28;20067;-43
2023/01/23 03:31:07;;;;;;;19.70;13.60;;;3.30;99.90;;;;;;5072465;28;20101;-43
2023/01/23 03:33:38;;;;;;;22.73;14.80;;;3.30;99.90;;;;;;5084261;28;20016;-42
2023/01/23 03:36:07;;;;;;;24.17;13.63;;;3.30;99.90;;;;;;5083708;28;20040;-43
2023/01/23 03:38:32;;;;;;;23.08;14.45;;;3.30;99.90;;;;;;5083634;28;20017;-41
2023/01/23 03:43:42;;;;;;;25.45;14.85;;;3.30;99.90;;;;;;5083683;28;20116;-43
2023/01/23 03:46:08;;;;;;;23.73;15.05;;;3.30;99.90;;;;;;5083742;28;20023;-43
2023/01/23 03:48:34;;;;;;;21.77;14.65;;;3.30;99.90;;;;;;5084625;28;20035;-42
2023/01/23 03:50:59;;;;;;;25.75;15.48;;;3.30;99.90;;;;;;5083266;28;20391;-44
2023/01/23 03:53:25;;;;;;;19.35;13.48;;;3.30;99.90;;;;;;5084644;28;20106;-43
2023/01/23 03:55:50;;;;;;;22.73;15.00;;;3.30;99.90;;;;;;5084106;28;20467;-43
2023/01/23 03:58:16;;;;;;;20.25;14.13;;;3.30;99.90;;;;;;5082486;28;20028;-43
2023/01/23 04:00:42;;;;;;;21.25;14.52;;;3.30;99.90;;;;;;5083987;28;20740;-44
2023/01/23 04:03:08;;;;;;;23.73;15.95;;;3.30;99.90;;;;;;5083754;28;20027;-43
2023/01/23 04:05:33;;;;;;;22.27;15.20;;;3.30;99.90;;;;;;5082514;28;20495;-42
2023/01/23 04:07:59;;;;;;;20.73;14.52;;;3.30;99.90;;;;;;5083301;28;20133;-43
2023/01/23 04:10:25;;;;;;;23.45;15.02;;;3.30;99.90;;;;;;5083909;28;20028;-43
2023/01/23 04:12:50;;;;;;;21.90;14.93;;;3.30;99.90;;;;;;5083418;28;20024;-43
2023/01/23 04:15:17;;;;;;;24.27;15.75;;;3.30;99.90;;;;;;5083091;28;20043;-43
2023/01/23 04:17:42;;;;;;;24.05;14.75;;;3.30;99.90;;;;;;5083806;28;20020;-43
2023/01/23 04:20:09;;;;;;;21.73;15.02;;;3.30;99.90;;;;;;5081935;28;20046;-43
2023/01/23 04:22:34;;;;;;;19.40;14.15;;;3.30;99.90;;;;;;5083441;28;20028;-44
2023/01/23 04:25:00;;;;;;;28.40;14.85;;;3.40;99.90;;;;;;5083190;28;20148;-44
2023/01/23 04:27:26;;;;;;;27.02;16.30;;;3.30;99.90;;;;;;5083491;28;20026;-43
2023/01/23 04:29:51;;;;;;;21.95;15.30;;;3.40;99.90;;;;;;5083950;28;20570;-43
2023/01/23 04:32:17;;;;;;;21.88;15.30;;;3.30;99.90;;;;;;5083335;28;20020;-43
2023/01/23 04:34:42;;;;;;;25.00;16.50;;;3.40;99.90;;;;;;5082824;28;20056;-43
2023/01/23 04:37:08;;;;;;;21.88;15.57;;;3.40;99.90;;;;;;5083417;28;20015;-43
2023/01/23 04:39:33;;;;;;;22.88;15.45;;;3.40;99.90;;;;;;5083245;28;20032;-44
2023/01/23 04:41:59;;;;;;;21.58;15.15;;;3.40;99.90;;;;;;5082046;28;20069;-43
2023/01/23 04:44:26;;;;;;;25.50;16.70;;;3.40;99.90;;;;;;5083856;28;20475;-43
2023/01/23 04:46:53;;;;;;;23.63;16.13;;;3.40;99.90;;;;;;5083199;28;20028;-43
2023/01/23 04:49:23;;;;;;;25.08;15.60;;;3.40;99.90;;;;;;5080830;28;20089;-43
2023/01/23 04:51:48;;;;;;;22.35;15.57;;;3.40;99.90;;;;;;5072216;28;20104;-44
2023/01/23 04:54:15;;;;;;;21.35;15.00;;;3.40;99.90;;;;;;5081428;28;20012;-43
2023/01/23 04:56:41;;;;;;;22.95;16.30;;;3.40;99.90;;;;;;5082431;28;20023;-43
2023/01/23 04:59:07;;;;;;;22.67;16.67;;;3.40;99.90;;;;;;5082349;28;20038;-43
2023/01/23 05:01:33;;;;;;;27.02;16.80;;;3.30;99.90;;;;;;5082108;28;20016;-43
2023/01/23 05:03:58;;;;;;;23.73;15.63;;;3.30;99.90;;;;;;5082515;28;20040;-44
2023/01/23 05:06:24;;;;;;;23.83;15.30;;;3.30;99.90;;;;;;5082246;28;20020;-44
2023/01/23 05:08:49;;;;;;;24.17;16.13;;;3.30;99.90;;;;;;5081321;28;20101;-43
2023/01/23 05:11:15;;;;;;;24.15;15.65;;;3.40;99.90;;;;;;5081165;28;20028;-43
2023/01/23 05:13:41;;;;;;;22.35;15.25;;;3.40;99.90;;;;;;5082503;28;20668;-43
2023/01/23 05:16:07;;;;;;;23.10;15.88;;;3.40;99.90;;;;;;5081454;28;20028;-43
2023/01/23 05:18:33;;;;;;;22.90;14.65;;;3.40;99.90;;;;;;5081964;28;20027;-42
2023/01/23 05:20:58;;;;;;;21.33;13.55;;;3.40;99.90;;;;;;5081914;28;20626;-43
2023/01/23 05:23:24;;;;;;;19.90;14.25;;;3.40;99.90;;;;;;5081603;28;20035;-43
2023/01/23 05:25:49;;;;;;;20.70;13.32;;;3.40;99.90;;;;;;5082446;28;20032;-44
2023/01/23 05:28:15;;;;;;;20.80;13.70;;;3.50;99.90;;;;;;5082043;28;20031;-43
2023/01/23 05:30:41;;;;;;;18.30;13.80;;;3.40;99.90;;;;;;5081164;28;20032;-44
2023/01/23 05:33:06;;;;;;;18.55;13.60;;;3.50;99.90;;;;;;5081653;28;20038;-42
2023/01/23 05:35:32;;;;;;;22.48;14.68;;;3.50;99.90;;;;;;5082244;28;20173;-43
2023/01/23 05:37:57;;;;;;;21.85;15.23;;;3.40;99.90;;;;;;5081821;28;20035;-43
2023/01/23 05:40:23;;;;;;;22.42;14.43;;;3.40;99.90;;;;;;5081882;28;20024;-43
2023/01/23 05:42:49;;;;;;;22.02;15.68;;;3.40;99.90;;;;;;5081423;28;20024;-43
2023/01/23 05:45:15;;;;;;;19.45;13.98;;;3.50;99.90;;;;;;5081110;28;20027;-43
2023/01/23 05:47:42;;;;;;;22.08;14.32;;;3.50;99.90;;;;;;5081715;28;20131;-44
2023/01/23 05:50:12;;;;;;;20.95;14.88;;;3.50;99.90;;;;;;5080916;28;20071;-43
2023/01/23 05:52:38;;;;;;;20.30;14.98;;;3.50;99.90;;;;;;5082154;28;20020;-43
2023/01/23 05:55:03;;;;;;;25.02;15.05;;;3.50;99.90;;;;;;5080943;28;20557;-44
2023/01/23 05:57:29;;;;;;;22.17;14.90;;;3.50;99.90;;;;;;5080964;28;20400;-43
2023/01/23 05:59:54;;;;;;;21.50;15.30;;;3.50;99.90;;;;;;5081054;28;20139;-43
2023/01/23 06:02:20;;;;;;;21.02;13.40;;;3.40;99.90;;;;;;5080859;28;20023;-43
2023/01/23 06:04:47;;;;;;;27.42;16.10;;;3.40;99.90;;;;;;5080676;28;20111;-43
2023/01/23 06:07:14;;;;;;;22.65;15.27;;;3.40;99.90;;;;;;5081419;28;20024;-43
2023/01/23 06:09:40;;;;;;;23.38;15.95;;;3.40;99.90;;;;;;5081022;28;20101;-43
2023/01/23 06:12:06;;;;;;;24.58;16.45;;;3.40;99.90;;;;;;5080616;28;20882;-43
2023/01/23 06:14:32;;;;;;;26.67;16.25;;;3.40;99.90;;;;;;5081515;28;20028;-43
2023/01/23 06:16:57;;;;;;;24.67;16.33;;;3.40;99.90;;;;;;5081678;28;20020;-44
2023/01/23 06:19:23;;;;;;;23.85;15.80;;;3.40;99.90;;;;;;5080129;28;20051;-44
2023/01/23 06:21:48;;;;;;;20.23;14.93;;;3.40;99.90;;;;;;5080966;28;20202;-43
2023/01/23 06:24:14;;;;;;;23.60;14.80;;;3.40;99.90;;;;;;5081537;28;20028;-45
2023/01/23 06:26:39;;;;;;;21.92;15.15;;;3.50;99.90;;;;;;5080848;28;20023;-44
2023/01/23 06:29:05;;;;;;;24.17;15.77;;;3.50;99.90;;;;;;5080830;28;20114;-43
2023/01/23 06:31:31;;;;;;;20.92;15.30;;;3.50;99.90;;;;;;5080969;28;20122;-43
2023/01/23 06:33:57;;;;;;;22.65;15.38;;;3.50;99.90;;;;;;5080417;28;20074;-44
2023/01/23 06:36:24;;;;;;;24.15;16.42;;;3.50;99.90;;;;;;5081150;28;20080;-42
2023/01/23 06:38:49;;;;;;;23.45;16.33;;;3.50;99.90;;;;;;5082154;28;20116;-43
2023/01/23 06:41:15;;;;;;;21.55;15.63;;;3.50;99.90;;;;;;5080411;28;20032;-43
2023/01/23 06:43:41;;;;;;;26.13;17.83;;;3.50;99.90;;;;;;5081084;28;20039;-43
2023/01/23 06:46:10;;;;;;;22.20;16.10;;;3.50;99.90;;;;;;5080630;28;20024;-43
2023/01/23 06:48:36;;;;;;;21.63;15.82;;;3.60;99.90;;;;;;5081115;28;20024;-43
2023/01/23 06:51:05;;;;;;;25.40;16.73;;;3.50;99.90;;;;;;5080926;28;20487;-43
2023/01/23 06:53:31;;;;;;;24.50;16.35;;;3.60;99.90;;;;;;5081040;28;20016;-43
2023/01/23 06:56:01;;;;;;;21.00;15.27;;;3.60;99.90;;;;;;5080693;28;20028;-46
2023/01/23 06:58:27;;;;;;;22.05;15.15;;;3.50;99.90;;;;;;5082449;28;20605;-43
2023/01/23 07:00:53;;;;;;;20.90;15.90;;;3.60;99.90;;;;;;5080948;28;20028;-44
2023/01/23 07:03:19;;;;;;;21.60;16.25;;;3.60;99.90;;;;;;5080581;28;20392;-44
2023/01/23 07:05:44;;;;;;;26.80;17.48;;;3.60;99.90;;;;;;5080876;28;20501;-43
2023/01/23 07:08:10;;;;;;;28.70;16.42;;;3.60;99.90;;;;;;5077802;28;20062;-43
2023/01/23 07:10:36;;;;;;;24.63;16.80;;;3.60;99.90;;;;;;5079414;28;20078;-43
2023/01/23 07:13:06;;;;;;;27.38;16.90;;;3.60;99.90;;;;;;5079877;28;20024;-43
2023/01/23 07:15:33;;;;;;;24.92;16.35;;;3.60;99.90;;;;;;5080079;28;20028;-43
2023/01/23 07:17:59;;;;;;;23.52;16.50;;;3.60;99.90;;;;;;5079321;28;20536;-43
2023/01/23 07:20:26;;;;;;;25.38;17.70;;;3.60;99.90;;;;;;5080091;28;20070;-43
2023/01/23 07:22:55;;;;;;;26.30;17.73;;;3.60;99.90;;;;;;5079197;28;20535;-44
2023/01/23 07:25:22;;;;;;;23.67;16.63;;;3.60;99.90;;;;;;5078817;28;20074;-43
2023/01/23 07:27:48;;;;;;;24.80;16.85;;;3.60;99.90;;;;;;5080432;28;20071;-45
2023/01/23 07:30:15;;;;;;;22.65;16.35;;;3.60;99.90;;;;;;5078315;28;20182;-43
2023/01/23 07:32:41;;;;;;;23.52;16.73;;;3.60;99.90;;;;;;5079862;28;20110;-43
2023/01/23 07:35:07;;;;;;;24.92;16.80;;;3.60;99.90;;;;;;5082281;28;20138;-43
2023/01/23 07:37:33;;;;;;;24.73;16.60;;;3.60;99.90;;;;;;5083285;28;20483;-43
2023/01/23 07:39:59;;;;;;;22.05;15.85;;;3.60;99.90;;;;;;5084148;28;20024;-44
2023/01/23 07:42:24;;;;;;;20.77;16.45;;;3.70;99.90;;;;;;5083442;28;20074;-44
2023/01/23 07:44:50;;;;;;;21.33;15.57;;;3.70;99.90;;;;;;5083193;28;20028;-44
2023/01/23 07:47:15;;;;;;;19.25;14.35;;;3.70;99.90;;;;;;5083866;28;20056;-43
2023/01/23 07:49:41;;;;;;;17.45;13.80;;;3.70;99.90;;;;;;5083845;28;20051;-43
2023/01/23 07:52:06;;;;;;;20.50;14.65;;;3.70;99.90;;;;;;5082776;28;20571;-43
2023/01/23 07:54:32;;;;;;;24.90;16.52;;;3.70;99.90;;;;;;5084596;28;20543;-43
2023/01/23 07:56:57;;;;;;;22.75;14.93;;;3.70;99.90;;;;;;5083223;28;20023;-44
2023/01/23 07:59:23;;;;;;;21.30;14.85;;;3.70;99.90;;;;;;5083650;28;20190;-44
2023/01/23 08:01:51;;;;;;;24.20;17.48;;;3.70;99.90;;;;;;5085019;28;20075;-43
2023/01/23 08:04:19;;;;;;;23.25;16.73;;;3.80;99.90;;;;;;5081723;28;20128;-43
2023/01/23 08:06:45;;;;;;;21.30;15.52;;;3.80;99.90;;;;;;5083582;28;20391;-45
2023/01/23 08:09:11;;;;;;;22.48;15.35;;;3.80;99.90;;;;;;5082811;28;20605;-43
2023/01/23 08:11:37;;;;;;;23.08;16.42;;;3.80;99.90;;;;;;5083006;28;20035;-43
2023/01/23 08:14:03;;;;;;;24.00;15.75;;;3.80;99.90;;;;;;5082725;28;20019;-44
2023/01/23 08:16:28;;;;;;;22.45;15.20;;;3.80;99.90;;;;;;5083895;28;20035;-44
2023/01/23 08:18:54;;;;;;;21.17;15.88;;;3.80;99.90;;;;;;5082403;28;20395;-43
2023/01/23 08:21:20;;;;;;;22.95;16.05;;;3.80;99.90;;;;;;5082464;28;20490;-44
2023/01/23 08:23:46;;;;;;;24.33;15.45;;;3.80;99.90;;;;;;5083741;28;20054;-43
2023/01/23 08:26:16;;;;;;;24.65;15.82;;;3.90;99.90;;;;;;5082713;28;20032;-44
2023/01/23 08:28:42;;;;;;;22.52;16.00;;;3.90;99.90;;;;;;5082957;28;20024;-45
2023/01/23 08:31:09;;;;;;;24.23;15.80;;;3.90;99.90;;;;;;5082414;28;20620;-44
2023/01/23 08:33:38;;;;;;;23.77;15.63;;;3.90;99.90;;;;;;5082095;28;20158;-44
2023/01/23 08:36:05;;;;;;;21.98;15.35;;;3.90;99.90;;;;;;5082063;28;20402;-44
2023/01/23 08:38:31;;;;;;;23.77;16.73;;;4.00;99.90;;;;;;5083153;28;20028;-43
2023/01/23 08:41:01;;;;;;;25.10;16.63;;;3.90;99.90;;;;;;5082242;28;20372;-44
2023/01/23 08:43:27;;;;;;;25.08;15.90;;;4.00;99.90;;;;;;5083290;28;20420;-43
2023/01/23 08:45:55;;;;;;;21.00;14.98;;;4.00;99.90;;;;;;5082385;28;20028;-43
2023/01/23 08:48:22;;;;;;;21.70;15.60;;;4.00;99.90;;;;;;5082729;28;20030;-45
2023/01/23 08:50:49;;;;;;;22.58;15.48;;;4.00;99.90;;;;;;5082159;28;20036;-43
2023/01/23 08:53:14;;;;;;;22.95;15.18;;;4.00;99.90;;;;;;5081803;28;20027;-43
2023/01/23 08:55:40;;;;;;;21.40;14.93;;;4.10;99.90;;;;;;5082750;28;20028;-43
2023/01/23 08:58:07;;;;;;;20.25;15.30;;;4.10;99.90;;;;;;5081564;28;20030;-44
2023/01/23 09:00:33;;;;;;;17.90;13.95;;;4.10;99.90;;;;;;5082155;28;20085;-44
2023/01/23 09:03:00;;;;;;;20.50;15.30;;;4.10;99.90;;;;;;5082081;28;20760;-44
2023/01/23 09:05:27;;;;;;;20.83;14.70;;;4.20;99.90;;;;;;5082843;28;20146;-43
2023/01/23 09:07:54;;;;;;;24.65;16.33;;;4.20;99.90;;;;;;5082191;28;20036;-43
2023/01/23 09:10:19;;;;;;;20.30;14.90;;;4.30;99.90;;;;;;5081788;28;20525;-43
2023/01/23 09:12:45;;;;;;;20.88;15.23;;;4.30;99.90;;;;;;5082865;28;20379;-44
2023/01/23 09:15:10;;;;;;;23.67;16.33;;;4.30;99.90;;;;;;5081605;28;20530;-44
2023/01/23 09:17:36;;;;;;;22.77;15.35;;;4.30;99.90;;;;;;5082923;28;20055;-43
2023/01/23 09:20:04;;;;;;;23.30;15.13;;;4.30;99.90;;;;;;5081959;28;20039;-44
2023/01/23 09:22:30;;;;;;;20.83;14.77;;;4.30;99.90;;;;;;5080970;28;20051;-43
2023/01/23 09:24:56;;;;;;;20.85;15.57;;;4.30;99.90;;;;;;5081679;28;20705;-43
2023/01/23 09:27:22;;;;;;;18.48;14.10;;;4.30;99.90;;;;;;5081056;28;20024;-44
2023/01/23 09:29:49;;;;;;;20.85;15.00;;;4.40;99.90;;;;;;5080723;28;20039;-44
2023/01/23 09:32:15;;;;;;;20.45;15.55;;;4.40;99.90;;;;;;5081051;28;20035;-43
2023/01/23 09:34:40;;;;;;;22.65;16.17;;;4.50;99.90;;;;;;5082413;28;20419;-43
2023/01/23 09:37:06;;;;;;;20.88;15.30;;;4.50;99.90;;;;;;5080624;28;20742;-44
2023/01/23 09:39:31;;;;;;;18.27;14.23;;;4.50;99.90;;;;;;5082123;28;20035;-43
2023/01/23 09:41:58;;;;;;;24.15;15.77;;;4.50;99.90;;;;;;5081208;28;20024;-43
2023/01/23 09:44:44;;;;;;;20.50;15.38;;;4.50;99.90;;;;;;5081207;28;20091;-43
2023/01/23 09:47:25;;;;;;;20.67;14.68;;;4.50;99.90;;;;;;5081140;28;20031;-43
2023/01/23 09:49:57;;;;;;;21.30;15.48;;;4.50;99.90;;;;;;5081558;28;20044;-42
2023/01/23 09:52:27;;;;;;;20.27;14.50;;;4.50;99.90;;;;;;5081777;28;20024;-43
2023/01/23 09:55:17;;;;;;;18.42;13.55;;;4.60;99.90;;;;;;5082120;28;20024;-43
2023/01/23 09:57:53;;;;;;;19.00;13.70;;;4.60;99.90;;;;;;5080611;28;20621;-43
2023/01/23 10:00:24;;;;;;;20.95;14.70;;;4.60;99.90;;;;;;5081237;28;20054;-44
2023/01/23 10:02:52;;;;;;;19.88;14.55;;;4.60;99.90;;;;;;5080861;28;20782;-44
2023/01/23 10:05:24;;;;;;;21.63;15.73;;;4.70;99.90;;;;;;5080878;28;20034;-44
2023/01/23 10:08:12;;;;;;;20.23;14.40;;;4.70;99.90;;;;;;5082475;28;20063;-43
2023/01/23 10:10:54;;;;;;;23.02;14.65;;;4.70;99.90;;;;;;5081125;28;20043;-43
2023/01/23 10:13:34;;;;;;;21.05;14.30;;;4.70;99.90;;;;;;5080433;28;20501;-43
2023/01/23 10:16:36;;;;;;;19.42;13.88;;;4.80;99.90;;;;;;5060965;28;20165;-43
2023/01/23 10:19:20;;;;;;;21.75;15.55;;;4.80;99.90;;;;;;5080043;28;20030;-43
2023/01/23 10:21:45;;;;;;;20.98;14.00;;;4.80;99.90;;;;;;5081600;28;20429;-43
2023/01/23 10:24:39;;;;;;;20.50;14.77;;;4.80;99.90;;;;;;5080634;28;20589;-44
2023/01/23 10:27:21;;;;;;;20.77;15.20;;;4.80;99.90;;;;;;5081377;28;20519;-44
2023/01/23 10:30:01;;;;;;;19.90;14.32;;;4.80;99.90;;;;;;5078825;28;20036;-43
2023/01/23 10:32:29;;;;;;;20.33;14.65;;;4.80;99.90;;;;;;5080816;28;20073;-43
2023/01/23 10:35:04;;;;;;;22.85;14.88;;;4.80;99.90;;;;;;5081192;28;20040;-43
2023/01/23 10:37:44;;;;;;;22.33;15.75;;;4.90;99.90;;;;;;5081448;28;20028;-43
2023/01/23 10:43:09;;;;;;;25.45;16.27;;;4.90;99.90;;;;;;5080404;28;20093;-43
2023/01/23 10:45:36;;;;;;;24.13;15.90;;;4.90;99.90;;;;;;5081226;28;20059;-44
2023/01/23 10:48:02;;;;;;;21.45;15.38;;;5.00;99.90;;;;;;5079803;28;20040;-42
2023/01/23 10:50:38;;;;;;;21.63;15.48;;;5.00;99.90;;;;;;5080741;28;20041;-44
2023/01/23 10:53:14;;;;;;;23.08;16.23;;;5.00;99.90;;;;;;5079347;28;20629;-43
2023/01/23 10:55:44;;;;;;;22.55;15.73;;;5.00;99.90;;;;;;5078879;28;20044;-43
2023/01/23 10:58:35;;;;;;;22.48;14.65;;;5.10;99.90;;;;;;5080160;28;20108;-44
2023/01/23 11:01:03;;;;;;;22.80;15.18;;;5.10;99.90;;;;;;5079105;28;20581;-43
2023/01/23 11:03:31;;;;;;;23.33;16.98;;;5.10;99.90;;;;;;5081461;28;20024;-43
2023/01/23 11:06:02;;;;;;;25.00;16.52;;;5.10;99.90;;;;;;5081212;28;20038;-44
2023/01/23 11:08:36;;;;;;;21.83;16.73;;;5.20;99.90;;;;;;5081122;28;20032;-43
2023/01/23 11:11:14;;;;;;;23.98;16.00;;;5.20;99.90;;;;;;5080498;28;20070;-44
2023/01/23 11:13:40;;;;;;;22.67;16.88;;;5.30;99.90;;;;;;5084827;28;20032;-43
2023/01/23 11:16:13;;;;;;;22.92;17.35;;;5.30;99.90;;;;;;5083715;28;20024;-44
2023/01/23 11:18:54;;;;;;;22.35;15.98;;;5.30;99.90;;;;;;5084873;28;20028;-44
2023/01/23 11:21:27;;;;;;;21.08;16.25;;;5.30;99.90;;;;;;5083455;28;20114;-43
2023/01/23 11:24:30;;;;;;;26.30;18.50;;;5.40;99.90;;;;;;5084514;28;20020;-44
2023/01/23 11:27:01;;;;;;;24.98;19.00;;;5.40;99.90;;;;;;5077089;28;20032;-43
2023/01/23 11:29:29;;;;;;;25.15;18.58;;;5.40;99.90;;;;;;5084215;28;20032;-43
2023/01/23 11:32:02;;;;;;;25.25;19.05;;;5.40;99.90;;;;;;5084286;28;20032;-43
2023/01/23 11:34:35;;;;;;;27.90;18.77;;;5.40;99.90;;;;;;5084955;28;20070;-44
2023/01/23 11:37:03;;;;;;;22.75;17.17;;;5.40;99.90;;;;;;5083460;28;20183;-44
2023/01/23 11:39:35;;;;;;;22.98;17.02;;;5.40;99.90;;;;;;5085375;28;20032;-44
2023/01/23 11:42:01;;;;;;;23.33;16.17;;;5.40;99.90;;;;;;5085267;28;20020;-43
2023/01/23 11:44:28;;;;;;;20.10;15.70;;;5.40;99.90;;;;;;5084967;28;20024;-43
2023/01/23 11:46:53;;;;;;;20.70;15.95;;;5.40;99.90;;;;;;5084472;28;20032;-43
2023/01/23 11:49:40;;;;;;;19.05;14.85;;;5.40;99.90;;;;;;5082876;28;20039;-43
2023/01/23 11:52:33;;;;;;;20.05;14.18;;;5.50;99.90;;;;;;5083538;28;20133;-43
2023/01/23 11:55:24;;;;;;;18.80;14.60;;;5.50;99.90;;;;;;5084007;28;20761;-43
2023/01/23 11:58:01;;;;;;;20.25;14.48;;;5.60;99.90;;;;;;5082120;28;20054;-44
2023/01/23 12:00:44;;;;;;;18.83;15.23;;;5.60;99.90;;;;;;5084328;28;20078;-42
2023/01/23 12:03:25;;;;;;;20.83;16.02;;;5.60;99.90;;;;;;5082888;28;20107;-43
2023/01/23 12:06:09;;;;;;;17.38;14.52;;;5.60;99.90;;;;;;5083804;28;20104;-43
2023/01/23 12:09:15;;;;;;;19.08;14.98;;;5.60;99.90;;;;;;5074255;28;20028;-43
2023/01/23 12:11:59;;;;;;;22.00;15.05;;;5.60;99.90;;;;;;5083119;28;20040;-43
2023/01/23 12:14:58;;;;;;;20.17;15.48;;;5.60;99.90;;;;;;5083267;28;20035;-43
2023/01/23 12:17:42;;;;;;;19.52;14.52;;;5.60;99.90;;;;;;5082998;28;20028;-43
2023/01/23 12:20:21;;;;;;;21.10;15.88;;;5.60;99.90;;;;;;5062493;28;20123;-42
2023/01/23 12:22:50;;;;;;;20.85;16.08;;;5.50;99.90;;;;;;5079441;28;20032;-43
2023/01/23 12:25:28;;;;;;;18.92;15.13;;;5.60;99.90;;;;;;5082468;28;20408;-43
2023/01/23 12:28:03;;;;;;;20.70;16.10;;;5.60;99.90;;;;;;5083554;28;20028;-43
2023/01/23 12:30:56;;;;;;;19.77;15.10;;;5.60;99.90;;;;;;5064069;28;20058;-44
2023/01/23 12:33:36;;;;;;;20.33;15.45;;;5.70;99.90;;;;;;5080579;28;20032;-44
2023/01/23 12:36:20;;;;;;;22.60;16.27;;;5.70;99.90;;;;;;5083185;28;20043;-43
2023/01/23 12:39:22;;;;;;;21.50;14.98;;;5.70;99.90;;;;;;5083036;28;20133;-43
2023/01/23 12:41:52;;;;;;;20.58;15.40;;;5.70;99.90;;;;;;5083584;28;20028;-43
2023/01/23 12:44:32;;;;;;;21.58;16.55;;;5.70;99.90;;;;;;5082162;28;20885;-43
2023/01/23 12:47:06;;;;;;;20.70;16.05;;;5.70;99.90;;;;;;5082204;28;20111;-43
2023/01/23 12:49:43;;;;;;;21.77;15.75;;;5.80;99.90;;;;;;5082683;28;20028;-44
2023/01/23 12:52:23;;;;;;;19.55;14.52;;;5.80;99.90;;;;;;5082699;28;20103;-44
2023/01/23 12:54:56;;;;;;;24.88;17.45;;;5.80;99.90;;;;;;5083585;28;20099;-43
2023/01/23 12:57:43;;;;;;;19.98;15.15;;;5.80;99.90;;;;;;5083230;28;20608;-44